createdAt,value
2018-04-01T00:00:24.277Z,2.2
2018-04-01T00:03:24.284Z,2.2
2018-04-01T00:06:24.267Z,2.2
2018-04-01T00:09:24.310Z,2.6
2018-04-01T00:12:24.302Z,2.5
2018-04-01T00:15:25.108Z,2.3
2018-04-01T00:18:24.269Z,2.3
2018-04-01T00:21:24.252Z,2.3
2018-04-01T00:24:24.316Z,2.2
2018-04-01T00:27:24.265Z,2.2
2018-04-01T00:30:24.282Z,2.4
2018-04-01T00:33:24.283Z,2.3
2018-04-01T00:36:24.257Z,2.3
2018-04-01T00:39:24.282Z,2.8
2018-04-01T00:42:24.242Z,2.5
2018-04-01T00:45:24.256Z,2.4
2018-04-01T00:48:24.248Z,2.3
2018-04-01T00:51:24.317Z,2.4
2018-04-01T00:54:24.240Z,2.3
2018-04-01T00:57:24.240Z,2.3
2018-04-01T01:00:24.268Z,2.3
2018-04-01T01:03:24.247Z,2.3
2018-04-01T01:06:24.248Z,2.3
2018-04-01T01:09:24.277Z,2.2
2018-04-01T01:12:24.246Z,2.2
2018-04-01T01:15:24.293Z,2.6
2018-04-01T01:18:24.232Z,2.4
2018-04-01T01:21:24.252Z,2.3
2018-04-01T01:24:24.244Z,2.3
2018-04-01T01:27:24.255Z,2.2
2018-04-01T01:30:24.285Z,2.2
2018-04-01T01:33:24.266Z,2.2
2018-04-01T01:36:24.213Z,2.1
2018-04-01T01:39:24.217Z,2.2
2018-04-01T01:42:24.228Z,2.1
2018-04-01T01:45:24.240Z,2.1
2018-04-01T01:48:24.333Z,2.2
2018-04-01T01:51:24.264Z,2.1
2018-04-01T01:54:24.309Z,2.1
2018-04-01T01:57:24.275Z,2.1
2018-04-01T02:00:24.269Z,2.1
2018-04-01T02:03:24.254Z,2.1
2018-04-01T02:06:24.266Z,2
2018-04-01T02:09:24.239Z,2.1
2018-04-01T02:12:24.315Z,2.1
2018-04-01T02:15:24.281Z,2.2
2018-04-01T02:18:24.237Z,2.1
2018-04-01T02:21:24.240Z,2.1
2018-04-01T02:24:24.244Z,2.1
2018-04-01T02:27:24.235Z,2
2018-04-01T02:30:24.248Z,2
2018-04-01T02:33:24.281Z,2.2
2018-04-01T02:36:24.301Z,2.1
2018-04-01T02:39:24.264Z,2.1
2018-04-01T02:42:24.263Z,2
2018-04-01T02:45:24.203Z,1.9
2018-04-01T02:48:24.245Z,1.9
2018-04-01T02:51:24.251Z,2
2018-04-01T02:54:24.222Z,1.9
2018-04-01T02:57:24.260Z,2
2018-04-01T03:00:24.223Z,1.9
2018-04-01T03:03:24.236Z,2
2018-04-01T03:06:24.212Z,1.8
2018-04-01T03:09:24.207Z,1.8
2018-04-01T03:12:24.215Z,1.9
2018-04-01T03:15:24.243Z,2.2
2018-04-01T03:18:24.222Z,2
2018-04-01T03:21:24.297Z,1.9
2018-04-01T03:24:24.216Z,1.8
2018-04-01T03:27:24.236Z,1.9
2018-04-01T03:30:24.266Z,1.9
2018-04-01T03:33:24.211Z,1.8
2018-04-01T03:36:24.219Z,1.8
2018-04-01T03:39:24.210Z,1.8
2018-04-01T03:42:24.219Z,1.8
2018-04-01T03:45:24.198Z,1.8
2018-04-01T03:48:24.188Z,1.8
2018-04-01T03:51:24.219Z,1.8
2018-04-01T03:54:24.324Z,1.8
2018-04-01T03:57:24.195Z,1.8
2018-04-01T04:00:24.683Z,1.9
2018-04-01T04:03:24.203Z,1.8
2018-04-01T04:06:24.190Z,1.8
2018-04-01T04:09:24.193Z,1.8
2018-04-01T04:12:24.265Z,1.9
2018-04-01T04:15:24.208Z,1.7
2018-04-01T04:18:24.210Z,1.7
2018-04-01T04:21:24.223Z,1.7
2018-04-01T04:24:24.200Z,1.6
2018-04-01T04:27:24.199Z,1.7
2018-04-01T04:30:24.161Z,1.7
2018-04-01T04:33:24.195Z,1.7
2018-04-01T04:36:24.166Z,1.7
2018-04-01T04:39:24.153Z,1.6
2018-04-01T04:42:24.190Z,1.6
2018-04-01T04:45:24.183Z,1.7
2018-04-01T04:48:24.180Z,1.6
2018-04-01T04:51:24.179Z,1.6
2018-04-01T04:54:24.265Z,1.6
2018-04-01T04:57:24.177Z,1.6
2018-04-01T05:00:24.182Z,1.6
2018-04-01T05:03:24.146Z,1.6
2018-04-01T05:06:24.228Z,1.6
2018-04-01T05:09:24.191Z,1.6
2018-04-01T05:12:24.175Z,1.6
2018-04-01T05:15:24.189Z,1.6
2018-04-01T05:18:24.188Z,1.6
2018-04-01T05:21:24.153Z,1.6
2018-04-01T05:24:24.162Z,1.6
2018-04-01T05:27:24.175Z,1.6
2018-04-01T05:30:24.180Z,1.6
2018-04-01T05:33:24.213Z,1.5
2018-04-01T05:36:24.177Z,1.6
2018-04-01T05:39:24.168Z,1.6
2018-04-01T05:42:24.148Z,1.6
2018-04-01T05:45:24.200Z,1.6
2018-04-01T05:48:24.160Z,1.6
2018-04-01T05:51:24.180Z,1.6
2018-04-01T05:54:24.166Z,1.6
2018-04-01T05:57:24.153Z,1.6
2018-04-01T06:00:24.153Z,1.6
2018-04-01T06:03:24.167Z,1.5
2018-04-01T06:06:24.276Z,1.5
2018-04-01T06:09:24.170Z,1.7
2018-04-01T06:12:24.146Z,1.6
2018-04-01T06:15:24.162Z,1.6
2018-04-01T06:18:24.165Z,1.5
2018-04-01T06:21:24.160Z,1.5
2018-04-01T06:24:24.141Z,1.6
2018-04-01T06:27:24.225Z,1.5
2018-04-01T06:30:24.206Z,1.5
2018-04-01T06:33:24.141Z,1.5
2018-04-01T06:36:24.129Z,1.5
2018-04-01T06:39:24.163Z,1.5
2018-04-01T06:42:24.182Z,1.5
2018-04-01T06:45:24.643Z,1.4
2018-04-01T06:48:24.143Z,1.4
2018-04-01T06:51:24.209Z,1.4
2018-04-01T06:54:24.143Z,1.4
2018-04-01T06:57:24.169Z,1.4
2018-04-01T07:00:24.172Z,1.6
2018-04-01T07:03:24.169Z,5.4
2018-04-01T07:06:24.215Z,7.1
2018-04-01T07:09:24.123Z,6.6
2018-04-01T07:12:24.143Z,5.4
2018-04-01T07:15:24.148Z,4.1
2018-04-01T07:18:24.145Z,3.7
2018-04-01T07:21:24.145Z,4.1
2018-04-01T07:24:24.184Z,3.4
2018-04-01T07:27:24.125Z,3.9
2018-04-01T07:30:24.181Z,3.2
2018-04-01T07:33:24.150Z,2.6
2018-04-01T07:36:24.154Z,2.4
2018-04-01T07:39:24.136Z,2.8
2018-04-01T07:42:24.574Z,4.2
2018-04-01T07:45:24.158Z,3.7
2018-04-01T07:48:24.165Z,2.7
2018-04-01T07:51:24.119Z,2.8
2018-04-01T07:54:24.150Z,4.9
2018-04-01T07:57:24.237Z,3.3
2018-04-01T08:00:24.197Z,3.2
2018-04-01T08:03:24.168Z,3
2018-04-01T08:06:24.143Z,3.8
2018-04-01T08:09:24.152Z,2.7
2018-04-01T08:12:24.150Z,3.1
2018-04-01T08:15:24.132Z,4.5
2018-04-01T08:18:24.109Z,3.2
2018-04-01T08:21:24.119Z,3.1
2018-04-01T08:24:24.082Z,3.1
2018-04-01T08:27:24.090Z,3.1
2018-04-01T08:30:24.113Z,2.9
2018-04-01T08:33:24.145Z,2.3
2018-04-01T08:36:24.155Z,2.7
2018-04-01T08:39:24.124Z,2.5
2018-04-01T08:42:24.122Z,2.2
2018-04-01T08:45:24.139Z,3.1
2018-04-01T08:48:24.149Z,2.5
2018-04-01T08:51:24.140Z,2.1
2018-04-01T08:54:24.152Z,1.9
2018-04-01T08:57:24.104Z,1.7
2018-04-01T09:00:24.129Z,1.7
2018-04-01T09:03:24.118Z,2.5
2018-04-01T09:06:24.130Z,3.2
2018-04-01T09:09:26.689Z,2.9
2018-04-01T09:12:24.182Z,3
2018-04-01T09:15:24.096Z,2.8
2018-04-01T09:18:24.109Z,3.4
2018-04-01T09:21:24.144Z,3.1
2018-04-01T09:24:24.104Z,3
2018-04-01T09:27:24.100Z,2.8
2018-04-01T09:30:24.085Z,2.3
2018-04-01T09:33:24.148Z,2.3
2018-04-01T09:36:24.114Z,2.1
2018-04-01T09:39:24.091Z,5.4
2018-04-01T09:42:24.113Z,5.7
2018-04-01T09:45:24.087Z,4
2018-04-01T09:48:24.099Z,5.9
2018-04-01T09:51:24.089Z,5.6
2018-04-01T09:54:25.784Z,7.7
2018-04-01T09:57:24.228Z,8.3
2018-04-01T10:00:24.081Z,8.7
2018-04-01T10:03:24.519Z,10.6
2018-04-01T10:06:24.106Z,9.4
2018-04-01T10:09:24.088Z,8.3
2018-04-01T10:12:24.102Z,5.2
2018-04-01T10:15:24.098Z,4.8
2018-04-01T10:18:24.101Z,3.6
2018-04-01T10:21:24.106Z,4
2018-04-01T10:24:24.072Z,3.4
2018-04-01T10:27:24.147Z,3.9
2018-04-01T10:30:24.099Z,5.3
2018-04-01T10:33:24.085Z,4.2
2018-04-01T10:36:24.126Z,4.4
2018-04-01T10:39:24.089Z,4.4
2018-04-01T10:42:24.097Z,6
2018-04-01T10:45:24.095Z,7.2
2018-04-01T10:48:24.198Z,6.5
2018-04-01T10:51:24.074Z,7.8
2018-04-01T10:54:24.072Z,7.7
2018-04-01T10:57:24.100Z,8
2018-04-01T11:00:24.069Z,6.4
2018-04-01T11:03:24.120Z,6.3
2018-04-01T11:06:24.123Z,5.7
2018-04-01T11:09:24.063Z,5.7
2018-04-01T11:12:24.051Z,6.2
2018-04-01T11:15:24.085Z,5.8
2018-04-01T11:18:24.108Z,5.2
2018-04-01T11:21:24.053Z,5.1
2018-04-01T11:24:24.088Z,5.4
2018-04-01T11:27:24.082Z,4.8
2018-04-01T11:30:24.080Z,4.6
2018-04-01T11:33:24.053Z,4.1
2018-04-01T11:36:24.153Z,5.3
2018-04-01T11:39:24.077Z,4.5
2018-04-01T11:42:24.050Z,4.3
2018-04-01T11:45:24.054Z,3
2018-04-01T11:48:24.066Z,2.7
2018-04-01T11:51:24.053Z,3.1
2018-04-01T11:54:24.027Z,2.8
2018-04-01T11:57:24.051Z,2.7
2018-04-01T12:00:24.067Z,2.8
2018-04-01T12:03:24.036Z,3
2018-04-01T12:06:24.083Z,3.1
2018-04-01T12:09:24.034Z,2.5
2018-04-01T12:12:24.054Z,2
2018-04-01T12:15:24.065Z,2.5
2018-04-01T12:18:24.049Z,2.7
2018-04-01T12:21:24.080Z,2.8
2018-04-01T12:24:24.050Z,2.3
2018-04-01T12:27:24.072Z,2.5
2018-04-01T12:30:24.030Z,2.6
2018-04-01T12:33:24.057Z,2.3
2018-04-01T12:36:24.058Z,2.3
2018-04-01T12:39:24.114Z,2.4
2018-04-01T12:42:24.082Z,2.4
2018-04-01T12:45:24.024Z,1.9
2018-04-01T12:48:24.067Z,2.6
2018-04-01T12:51:24.053Z,3.9
2018-04-01T12:54:24.050Z,5.3
2018-04-01T12:57:24.080Z,4.5
2018-04-01T13:00:24.076Z,4.7
2018-04-01T13:03:24.028Z,6.2
2018-04-01T13:06:24.014Z,5.8
2018-04-01T13:09:24.057Z,4.1
2018-04-01T13:12:24.030Z,3.6
2018-04-01T13:15:24.178Z,3.2
2018-04-01T13:18:24.053Z,3.6
2018-04-01T13:21:24.080Z,2.4
2018-04-01T13:24:24.024Z,2.2
2018-04-01T13:27:24.049Z,2.1
2018-04-01T13:30:24.036Z,2.1
2018-04-01T13:33:24.054Z,2.1
2018-04-01T13:36:24.054Z,2.8
2018-04-01T13:39:24.039Z,2.5
2018-04-01T13:42:24.033Z,2.1
2018-04-01T13:45:23.996Z,1.9
2018-04-01T13:48:24.043Z,2.5
2018-04-01T13:51:24.061Z,2.5
2018-04-01T13:54:24.033Z,2.1
2018-04-01T13:57:24.037Z,2.1
2018-04-01T14:00:24.120Z,1.7
2018-04-01T14:03:24.007Z,2.6
2018-04-01T14:06:24.035Z,2
2018-04-01T14:09:24.042Z,2.4
2018-04-01T14:12:24.051Z,1.8
2018-04-01T14:15:24.033Z,1.7
2018-04-01T14:18:24.020Z,2.1
2018-04-01T14:21:24.044Z,2.3
2018-04-01T14:24:24.032Z,1.7
2018-04-01T14:27:24.017Z,1.6
2018-04-01T14:30:24.031Z,2
2018-04-01T14:33:23.999Z,2.1
2018-04-01T14:36:24.037Z,2.5
2018-04-01T14:39:24.028Z,3.7
2018-04-01T14:42:24.031Z,3.7
2018-04-01T14:45:24.028Z,3.3
2018-04-01T14:48:24.647Z,3.9
2018-04-01T14:51:24.014Z,5.9
2018-04-01T14:54:24.038Z,5.6
2018-04-01T14:57:24.022Z,5.7
2018-04-01T15:00:24.072Z,6.6
2018-04-01T15:03:24.023Z,5.7
2018-04-01T15:06:23.970Z,5.3
2018-04-01T15:09:24.040Z,4.6
2018-04-01T15:12:24.016Z,3.5
2018-04-01T15:15:24.027Z,3.6
2018-04-01T15:18:24.121Z,3.5
2018-04-01T15:21:24.816Z,2.7
2018-04-01T15:24:24.669Z,3
2018-04-01T15:27:24.008Z,2.8
2018-04-01T15:30:24.037Z,2.1
2018-04-01T15:33:24.011Z,2.4
2018-04-01T15:36:23.980Z,3.7
2018-04-01T15:39:23.977Z,3.5
2018-04-01T15:42:23.986Z,3.4
2018-04-01T15:45:24.053Z,4.8
2018-04-01T15:48:24.106Z,3.3
2018-04-01T15:51:23.987Z,3.3
2018-04-01T15:54:23.990Z,3.1
2018-04-01T15:57:24.503Z,3.2
2018-04-01T16:00:24.138Z,3.9
2018-04-01T16:03:24.030Z,3.9
2018-04-01T16:06:24.005Z,3.5
2018-04-01T16:09:23.991Z,2.5
2018-04-01T16:12:23.984Z,2.9
2018-04-01T16:15:23.999Z,2.9
2018-04-01T16:18:24.427Z,4.2
2018-04-01T16:21:23.990Z,4
2018-04-01T16:24:24.001Z,3.3
2018-04-01T16:27:24.035Z,4.2
2018-04-01T16:30:23.989Z,5.1
2018-04-01T16:33:24.066Z,5.3
2018-04-01T16:36:23.992Z,4.4
2018-04-01T16:39:24.014Z,4.3
2018-04-01T16:42:24.044Z,4.7
2018-04-01T16:45:24.022Z,5.1
2018-04-01T16:48:23.996Z,4.6
2018-04-01T16:51:23.982Z,3.7
2018-04-01T16:54:24.000Z,3.3
2018-04-01T16:57:24.010Z,2.4
2018-04-01T17:00:24.018Z,2.4
2018-04-01T17:03:24.002Z,2.8
2018-04-01T17:06:24.133Z,4.1
2018-04-01T17:09:25.169Z,3.4
2018-04-01T17:12:24.013Z,3.1
2018-04-01T17:15:24.017Z,2.9
2018-04-01T17:18:23.966Z,3.1
2018-04-01T17:21:24.426Z,3
2018-04-01T17:24:23.943Z,2.7
2018-04-01T17:27:23.987Z,2.4
2018-04-01T17:30:23.917Z,4.1
2018-04-01T17:33:23.962Z,3.2
2018-04-01T17:36:23.939Z,3.1
2018-04-01T17:39:23.968Z,2.5
2018-04-01T17:42:23.934Z,2.9
2018-04-01T17:45:23.960Z,3.6
2018-04-01T17:48:24.003Z,2.8
2018-04-01T17:51:23.998Z,2.8
2018-04-01T17:54:23.945Z,2.7
2018-04-01T17:57:23.962Z,2.6
2018-04-01T18:00:23.950Z,2.3
2018-04-01T18:03:23.939Z,2.1
2018-04-01T18:06:23.946Z,1.7
2018-04-01T18:09:23.975Z,2.5
2018-04-01T18:12:23.933Z,2.3
2018-04-01T18:15:24.000Z,2.7
2018-04-01T18:18:23.945Z,2.4
2018-04-01T18:21:23.942Z,1.9
2018-04-01T18:24:24.023Z,2.1
2018-04-01T18:27:23.971Z,1.9
2018-04-01T18:30:24.006Z,1.6
2018-04-01T18:33:23.996Z,1.5
2018-04-01T18:36:23.974Z,1.5
2018-04-01T18:39:23.959Z,2.3
2018-04-01T18:42:24.489Z,2
2018-04-01T18:45:23.965Z,1.8
2018-04-01T18:48:23.956Z,4.5
2018-04-01T18:51:23.906Z,3.5
2018-04-01T18:54:23.949Z,2.8
2018-04-01T18:57:23.921Z,2.3
2018-04-01T19:00:23.920Z,2.5
2018-04-01T19:03:23.931Z,2.2
2018-04-01T19:06:23.935Z,1.9
2018-04-01T19:09:23.924Z,1.9
2018-04-01T19:12:23.977Z,1.9
2018-04-01T19:15:23.979Z,1.9
2018-04-01T19:18:23.957Z,2
2018-04-01T19:21:23.928Z,2.2
2018-04-01T19:24:23.975Z,2.1
2018-04-01T19:27:23.923Z,2
2018-04-01T19:30:23.895Z,2
2018-04-01T19:33:24.086Z,2
2018-04-01T19:36:24.000Z,1.9
2018-04-01T19:39:23.947Z,2
2018-04-01T19:42:23.924Z,3.4
2018-04-01T19:45:23.908Z,3.9
2018-04-01T19:48:23.895Z,3.3
2018-04-01T19:51:23.994Z,4.1
2018-04-01T19:54:23.950Z,3.8
2018-04-01T19:57:23.903Z,4.2
2018-04-01T20:00:23.915Z,3
2018-04-01T20:03:24.090Z,2.5
2018-04-01T20:06:23.929Z,3.1
2018-04-01T20:09:23.917Z,3.9
2018-04-01T20:12:23.932Z,3.6
2018-04-01T20:15:23.920Z,3.8
2018-04-01T20:18:23.901Z,3.9
2018-04-01T20:21:23.927Z,5
2018-04-01T20:24:23.910Z,4.6
2018-04-01T20:27:24.293Z,4.3
2018-04-01T20:30:23.986Z,3.4
2018-04-01T20:33:27.023Z,3.1
2018-04-01T20:36:23.965Z,4
2018-04-01T20:39:23.931Z,3.6
2018-04-01T20:42:26.086Z,3.2
2018-04-01T20:45:23.933Z,2.9
2018-04-01T20:48:23.902Z,3
2018-04-01T20:51:23.886Z,2.6
2018-04-01T20:54:23.898Z,3.1
2018-04-01T20:57:23.878Z,2.9
2018-04-01T21:00:23.931Z,2.8
2018-04-01T21:03:23.906Z,2.9
2018-04-01T21:06:23.908Z,2.7
2018-04-01T21:09:24.090Z,2.9
2018-04-01T21:12:23.924Z,2.7
2018-04-01T21:15:23.948Z,2.7
2018-04-01T21:18:23.882Z,2.3
2018-04-01T21:21:23.894Z,2.5
2018-04-01T21:24:24.127Z,2.2
2018-04-01T21:27:23.910Z,2
2018-04-01T21:30:23.906Z,2.2
2018-04-01T21:33:23.894Z,2.1
2018-04-01T21:36:23.887Z,1.9
2018-04-01T21:39:23.923Z,2
2018-04-01T21:42:23.936Z,1.9
2018-04-01T21:45:23.890Z,1.8
2018-04-01T21:48:23.875Z,2.3
2018-04-01T21:51:23.889Z,2.2
2018-04-01T21:54:23.916Z,2.1
2018-04-01T21:57:24.561Z,2.1
2018-04-01T22:00:23.888Z,2.1
2018-04-01T22:03:23.999Z,2.6
2018-04-01T22:06:24.009Z,2.3
2018-04-01T22:09:23.904Z,2.3
2018-04-01T22:12:23.886Z,2
2018-04-01T22:15:23.866Z,2.1
2018-04-01T22:18:23.921Z,1.9
2018-04-01T22:21:24.406Z,1.8
2018-04-01T22:24:23.875Z,2.2
2018-04-01T22:27:23.878Z,2
2018-04-01T22:30:23.856Z,2
2018-04-01T22:33:23.923Z,2.4
2018-04-01T22:36:23.857Z,2.1
2018-04-01T22:39:23.937Z,2.3
2018-04-01T22:42:23.862Z,2.1
2018-04-01T22:45:23.872Z,1.9
2018-04-01T22:48:23.883Z,2
2018-04-01T22:51:23.862Z,1.8
2018-04-01T22:54:23.865Z,1.9
2018-04-01T22:57:23.848Z,2
2018-04-01T23:00:23.862Z,2
2018-04-01T23:03:23.861Z,1.9
2018-04-01T23:14:02.472Z,1.7
2018-04-01T23:17:02.464Z,2.4
2018-04-01T23:20:02.467Z,2.2
2018-04-01T23:23:02.450Z,2
2018-04-01T23:26:02.496Z,2
2018-04-01T23:29:02.436Z,2.1
2018-04-01T23:32:02.455Z,1.9
2018-04-01T23:35:02.590Z,2.3
2018-04-01T23:38:02.531Z,2.2
2018-04-01T23:41:02.476Z,2.1
2018-04-01T23:44:02.528Z,2.3
2018-04-01T23:47:02.521Z,2.1
2018-04-01T23:50:02.513Z,2
2018-04-01T23:53:02.496Z,1.9
2018-04-01T23:56:02.497Z,2
2018-04-01T23:59:02.940Z,2
